createdAt,value
2022-12-31T00:02:11.083Z,99928.47
2022-12-31T00:04:37.620Z,99940.06
2022-12-31T00:07:04.571Z,99937.75
2022-12-31T00:09:30.996Z,99934.25
2022-12-31T00:11:57.453Z,99932.00
2022-12-31T00:14:23.903Z,99933.25
2022-12-31T00:16:50.335Z,99934.38
2022-12-31T00:19:16.824Z,99934.00
2022-12-31T00:21:43.669Z,99928.97
2022-12-31T00:24:11.260Z,99935.66
2022-12-31T00:26:37.819Z,99933.28
2022-12-31T00:29:05.305Z,99934.53
2022-12-31T00:31:34.466Z,99932.25
2022-12-31T00:34:01.599Z,99936.53
2022-12-31T00:36:31.128Z,99942.84
2022-12-31T00:38:59.802Z,99932.44
2022-12-31T00:41:27.504Z,99941.81
2022-12-31T00:43:54.602Z,99947.31
2022-12-31T00:46:21.483Z,99943.38
2022-12-31T00:48:48.364Z,99951.28
2022-12-31T00:51:16.890Z,99958.41
2022-12-31T00:53:43.373Z,99963.50
2022-12-31T00:56:20.609Z,99969.34
2022-12-31T00:58:47.659Z,99974.81
2022-12-31T01:01:18.929Z,99968.34
2022-12-31T01:03:46.964Z,99964.44
2022-12-31T01:06:13.412Z,99969.50
2022-12-31T01:08:40.265Z,99975.44
2022-12-31T01:11:28.980Z,99976.25
2022-12-31T01:14:02.786Z,99980.56
2022-12-31T01:16:34.019Z,99980.56
2022-12-31T01:19:03.826Z,99982.06
2022-12-31T01:21:30.957Z,99978.69
2022-12-31T01:23:58.572Z,99973.50
2022-12-31T01:26:25.619Z,99976.25
2022-12-31T01:28:52.046Z,99979.78
2022-12-31T01:31:20.537Z,99986.91
2022-12-31T01:33:47.452Z,99995.53
2022-12-31T01:36:20.396Z,99999.41
2022-12-31T01:38:52.060Z,100003.38
2022-12-31T01:41:24.955Z,100000.66
2022-12-31T01:43:57.390Z,100008.13
2022-12-31T01:46:32.634Z,100008.41
2022-12-31T01:49:25.228Z,100013.69
2022-12-31T01:51:58.354Z,100018.50
2022-12-31T01:54:27.223Z,100009.06
2022-12-31T01:56:55.138Z,100013.31
2022-12-31T01:59:24.550Z,100019.16
2022-12-31T02:01:54.483Z,100016.19
2022-12-31T02:04:23.978Z,100018.53
2022-12-31T02:06:56.205Z,100020.56
2022-12-31T02:09:22.682Z,100004.81
2022-12-31T02:11:49.054Z,100012.66
2022-12-31T02:14:22.836Z,100006.75
2022-12-31T02:16:55.228Z,100010.78
2022-12-31T02:19:42.510Z,100009.94
2022-12-31T02:22:39.644Z,100002.13
2022-12-31T02:25:33.334Z,100006.47
2022-12-31T02:28:11.535Z,100003.38
2022-12-31T02:30:42.156Z,99995.81
2022-12-31T02:33:20.128Z,99995.91
2022-12-31T02:35:55.653Z,99999.41
2022-12-31T02:38:35.727Z,99990.44
2022-12-31T02:41:02.217Z,100003.75
2022-12-31T02:43:28.892Z,99992.88
2022-12-31T02:46:49.173Z,100001.84
2022-12-31T02:49:40.493Z,99992.56
2022-12-31T02:52:20.256Z,99988.38
2022-12-31T02:54:56.889Z,99980.19
2022-12-31T02:57:35.422Z,99995.06
2022-12-31T03:00:24.518Z,99986.44
2022-12-31T03:02:53.233Z,99985.59
2022-12-31T03:05:24.200Z,99987.66
2022-12-31T03:07:51.018Z,99985.78
2022-12-31T03:10:17.555Z,99984.28
2022-12-31T03:12:47.562Z,99985.03
2022-12-31T03:15:20.507Z,99979.09
2022-12-31T03:18:04.776Z,99982.34
2022-12-31T03:20:56.103Z,99980.75
2022-12-31T03:23:50.074Z,99977.22
2022-12-31T03:26:16.504Z,99979.22
2022-12-31T03:28:47.611Z,99973.75
2022-12-31T03:31:14.303Z,99971.47
2022-12-31T03:33:42.078Z,99971.81
2022-12-31T03:36:11.710Z,99958.72
2022-12-31T03:38:38.171Z,99964.53
2022-12-31T03:41:05.091Z,99972.44
2022-12-31T03:43:31.466Z,99974.44
2022-12-31T03:46:01.492Z,99962.78
2022-12-31T03:48:28.098Z,99964.78
2022-12-31T03:50:54.725Z,99960.88
2022-12-31T03:53:21.431Z,99964.06
2022-12-31T03:55:55.148Z,99972.34
2022-12-31T03:58:22.007Z,99969.31
2022-12-31T04:00:49.241Z,99966.59
2022-12-31T04:03:15.829Z,99978.66
2022-12-31T04:05:42.345Z,99973.66
2022-12-31T04:08:08.750Z,99972.03
2022-12-31T04:10:35.178Z,99980.72
2022-12-31T04:13:04.392Z,99984.25
2022-12-31T04:15:30.869Z,99983.38
2022-12-31T04:17:57.284Z,99979.81
2022-12-31T04:20:23.670Z,99972.81
2022-12-31T04:22:50.052Z,99972.38
2022-12-31T04:25:16.478Z,99966.88
2022-12-31T04:27:46.189Z,99959.41
2022-12-31T04:30:13.483Z,99957.47
2022-12-31T04:32:40.310Z,99957.13
2022-12-31T04:35:07.583Z,99944.16
2022-12-31T04:37:33.973Z,99937.88
2022-12-31T04:40:05.546Z,99936.69
2022-12-31T04:42:32.983Z,99929.72
2022-12-31T04:44:59.364Z,99932.03
2022-12-31T04:47:25.821Z,99930.91
2022-12-31T04:49:52.187Z,99933.63
2022-12-31T04:52:18.603Z,99936.00
2022-12-31T04:54:45.135Z,99935.22
2022-12-31T04:57:11.546Z,99941.47
2022-12-31T04:59:37.922Z,99941.94
2022-12-31T05:02:04.590Z,99946.69
2022-12-31T05:04:31.412Z,99942.38
2022-12-31T05:06:57.806Z,99939.69
2022-12-31T05:09:27.414Z,99936.97
2022-12-31T05:11:54.025Z,99943.28
2022-12-31T05:14:20.496Z,99933.13
2022-12-31T05:16:47.002Z,99937.44
2022-12-31T05:19:13.459Z,99937.03
2022-12-31T05:21:39.956Z,99926.84
2022-12-31T05:24:06.803Z,99932.69
2022-12-31T05:26:33.210Z,99923.03
2022-12-31T05:29:00.499Z,99918.38
2022-12-31T05:31:27.212Z,99920.75
2022-12-31T05:33:53.660Z,99909.78
2022-12-31T05:36:20.043Z,99904.31
2022-12-31T05:38:46.451Z,99907.47
2022-12-31T05:41:12.852Z,99908.69
2022-12-31T05:43:39.284Z,99920.38
2022-12-31T05:46:06.156Z,99932.13
2022-12-31T05:48:32.732Z,99930.19
2022-12-31T05:50:59.290Z,99937.59
2022-12-31T05:53:25.762Z,99934.88
2022-12-31T05:55:52.198Z,99927.03
2022-12-31T05:58:18.698Z,99918.91
2022-12-31T06:00:46.021Z,99920.81
2022-12-31T06:03:12.964Z,99916.91
2022-12-31T06:05:41.553Z,99918.06
2022-12-31T06:08:08.077Z,99907.53
2022-12-31T06:10:34.459Z,99908.31
2022-12-31T06:13:01.327Z,99903.63
2022-12-31T06:15:27.769Z,99894.25
2022-12-31T06:17:54.151Z,99891.88
2022-12-31T06:20:20.539Z,99908.41
2022-12-31T06:22:46.931Z,99908.38
2022-12-31T06:25:13.404Z,99915.44
2022-12-31T06:27:39.800Z,99916.31
2022-12-31T06:30:07.246Z,99904.94
2022-12-31T06:32:34.858Z,99900.69
2022-12-31T06:35:01.269Z,99903.06
2022-12-31T06:37:27.710Z,99902.72
2022-12-31T06:39:54.107Z,99899.19
2022-12-31T06:42:20.536Z,99896.03
2022-12-31T06:44:46.953Z,99902.38
2022-12-31T06:47:13.359Z,99901.63
2022-12-31T06:49:40.763Z,99895.41
2022-12-31T06:52:07.255Z,99899.06
2022-12-31T06:54:33.906Z,99902.53
2022-12-31T06:57:00.446Z,99906.09
2022-12-31T06:59:28.830Z,99907.75
2022-12-31T07:02:15.683Z,99905.78
2022-12-31T07:05:06.868Z,99910.50
2022-12-31T07:07:48.146Z,99916.56
2022-12-31T07:10:29.399Z,99908.69
2022-12-31T07:13:08.399Z,99909.91
2022-12-31T07:15:48.519Z,99902.53
2022-12-31T07:18:24.130Z,99898.94
2022-12-31T07:20:50.935Z,99909.81
2022-12-31T07:23:17.894Z,99912.63
2022-12-31T07:25:54.065Z,99920.44
2022-12-31T07:28:36.687Z,99932.69
2022-12-31T07:31:11.768Z,99925.59
2022-12-31T07:33:58.940Z,99927.16
2022-12-31T07:36:57.195Z,99918.53
2022-12-31T07:39:38.993Z,99923.91
2022-12-31T07:42:16.348Z,99914.91
2022-12-31T07:45:00.924Z,99912.13
2022-12-31T07:47:28.246Z,99916.44
2022-12-31T07:49:55.818Z,99934.09
2022-12-31T07:52:22.788Z,99928.56
2022-12-31T07:54:49.476Z,99932.41
2022-12-31T07:57:18.798Z,99935.50
2022-12-31T08:00:06.935Z,99937.44
2022-12-31T08:02:58.944Z,99932.25
2022-12-31T08:05:29.746Z,99925.97
2022-12-31T08:08:36.380Z,99927.47
2022-12-31T08:11:08.971Z,99924.28
2022-12-31T08:13:35.857Z,99930.13
2022-12-31T08:16:02.803Z,99923.06
2022-12-31T08:18:29.628Z,99923.44
2022-12-31T08:21:04.915Z,99921.84
2022-12-31T08:23:56.345Z,99936.69
2022-12-31T08:27:04.271Z,99938.66
2022-12-31T08:29:40.619Z,99962.94
2022-12-31T08:32:22.715Z,99961.78
2022-12-31T08:35:06.359Z,99957.84
2022-12-31T08:38:02.487Z,99947.66
2022-12-31T08:40:47.853Z,99957.03
2022-12-31T08:43:24.675Z,99973.06
2022-12-31T08:45:53.404Z,99979.41
2022-12-31T08:48:26.755Z,99960.22
2022-12-31T08:50:54.380Z,99979.78
2022-12-31T08:53:21.201Z,99988.44
2022-12-31T08:55:52.660Z,99990.41
2022-12-31T08:58:24.917Z,99992.78
2022-12-31T09:00:57.631Z,99999.03
2022-12-31T09:03:33.401Z,100005.06
2022-12-31T09:06:09.883Z,100005.06
2022-12-31T09:08:39.301Z,100010.22
2022-12-31T09:11:30.430Z,100002.78
2022-12-31T09:14:35.618Z,100006.44
2022-12-31T09:17:25.270Z,99998.59
2022-12-31T09:19:52.194Z,99997.47
2022-12-31T09:22:19.044Z,99998.28
2022-12-31T09:24:45.654Z,100009.63
2022-12-31T09:27:36.341Z,100003.41
2022-12-31T09:30:11.240Z,100014.00
2022-12-31T09:32:47.932Z,100007.78
2022-12-31T09:35:46.671Z,100005.09
2022-12-31T09:38:22.650Z,100010.59
2022-12-31T09:41:14.963Z,100016.50
2022-12-31T09:44:10.000Z,100014.19
2022-12-31T09:47:14.024Z,100016.94
2022-12-31T09:49:40.417Z,100016.56
2022-12-31T09:52:37.135Z,100017.31
2022-12-31T09:55:37.977Z,100029.91
2022-12-31T09:58:16.688Z,100026.78
2022-12-31T10:00:56.258Z,100025.16
2022-12-31T10:03:40.039Z,100020.44
2022-12-31T10:06:21.750Z,100023.56
2022-12-31T10:08:56.697Z,100027.47
2022-12-31T10:11:38.251Z,100023.16
2022-12-31T10:14:07.577Z,100034.13
2022-12-31T10:16:57.993Z,100044.72
2022-12-31T10:19:51.599Z,100047.47
2022-12-31T10:22:31.943Z,100051.34
2022-12-31T10:25:38.401Z,100052.50
2022-12-31T10:28:29.575Z,100032.91
2022-12-31T10:31:05.962Z,100045.47
2022-12-31T10:33:45.645Z,100027.41
2022-12-31T10:36:19.828Z,100030.59
2022-12-31T10:38:58.474Z,100039.59
2022-12-31T10:41:40.112Z,100031.00
2022-12-31T10:44:34.299Z,100014.94
2022-12-31T10:47:51.263Z,100016.94
2022-12-31T10:50:39.300Z,100023.28
2022-12-31T10:53:40.065Z,100019.34
2022-12-31T10:56:28.070Z,100024.09
2022-12-31T10:59:00.421Z,100033.09
2022-12-31T11:01:49.761Z,100020.59
2022-12-31T11:04:45.378Z,100015.50
2022-12-31T11:07:27.407Z,100019.84
2022-12-31T11:10:21.246Z,100019.09
2022-12-31T11:12:59.953Z,100015.19
2022-12-31T11:15:55.908Z,100012.09
2022-12-31T11:18:36.212Z,100007.44
2022-12-31T11:21:24.588Z,100008.19
2022-12-31T11:24:05.978Z,99989.78
2022-12-31T11:27:06.386Z,99987.03
2022-12-31T11:30:03.728Z,99991.78
2022-12-31T11:32:45.104Z,99985.44
2022-12-31T11:35:31.729Z,99989.34
2022-12-31T11:38:07.083Z,99980.75
2022-12-31T11:40:33.570Z,99981.19
2022-12-31T11:43:36.066Z,99980.75
2022-12-31T11:46:39.583Z,99970.97
2022-12-31T11:50:10.587Z,99967.47
2022-12-31T11:52:51.969Z,99966.28
2022-12-31T11:55:21.242Z,99972.19
2022-12-31T11:57:52.098Z,99969.88
2022-12-31T12:00:24.617Z,99972.63
2022-12-31T12:02:55.297Z,99975.38
2022-12-31T12:05:23.927Z,99963.66
2022-12-31T12:07:51.991Z,99963.66
2022-12-31T12:10:29.104Z,99957.78
2022-12-31T12:13:00.187Z,99962.09
2022-12-31T12:15:31.355Z,99959.78
2022-12-31T12:18:01.554Z,99962.56
2022-12-31T12:20:31.948Z,99958.97
2022-12-31T12:23:01.966Z,99956.59
2022-12-31T12:25:39.300Z,99949.63
2022-12-31T12:28:44.359Z,99950.47
2022-12-31T12:31:20.087Z,99940.63
2022-12-31T12:33:47.862Z,99923.78
2022-12-31T12:36:16.908Z,99914.41
2022-12-31T12:38:44.002Z,99925.38
2022-12-31T12:41:18.324Z,99929.31
2022-12-31T12:43:45.203Z,99923.81
2022-12-31T12:46:27.668Z,99943.47
2022-12-31T12:48:56.782Z,99991.75
2022-12-31T12:54:29.593Z,99998.75
2022-12-31T12:57:24.007Z,100018.03
2022-12-31T13:00:01.794Z,99995.72
2022-12-31T13:02:36.616Z,100012.09
2022-12-31T13:05:28.952Z,100026.28
2022-12-31T13:08:37.590Z,100048.59
2022-12-31T13:11:29.043Z,100063.22
2022-12-31T13:14:17.201Z,100097.03
2022-12-31T13:16:48.252Z,100088.41
2022-12-31T13:19:37.756Z,100075.00
2022-12-31T13:22:44.619Z,100080.84
2022-12-31T13:25:29.720Z,100079.47
2022-12-31T13:28:00.155Z,100086.53
2022-12-31T13:30:30.557Z,100090.06
2022-12-31T13:33:18.207Z,100079.63
2022-12-31T13:35:48.741Z,100062.28
2022-12-31T13:38:22.698Z,100047.75
2022-12-31T13:41:04.830Z,100031.66
2022-12-31T13:43:34.236Z,100046.25
2022-12-31T13:46:10.644Z,100053.28
2022-12-31T13:48:44.769Z,100065.47
2022-12-31T13:51:20.358Z,100061.53
2022-12-31T13:54:13.548Z,100066.59
2022-12-31T13:56:42.599Z,100059.13
2022-12-31T13:59:29.688Z,100060.69
2022-12-31T14:02:03.134Z,100065.78
2022-12-31T14:04:53.227Z,100067.31
2022-12-31T14:07:22.020Z,100070.81
2022-12-31T14:09:49.050Z,100077.09
2022-12-31T14:12:52.941Z,100072.44
2022-12-31T14:15:34.452Z,100080.66
2022-12-31T14:18:21.868Z,100077.19
2022-12-31T14:20:58.326Z,100092.50
2022-12-31T14:23:27.666Z,100094.06
2022-12-31T14:26:00.885Z,100101.06
2022-12-31T14:29:12.021Z,100079.06
2022-12-31T14:31:53.654Z,100095.91
2022-12-31T14:34:47.487Z,100098.31
2022-12-31T14:37:23.879Z,100091.25
2022-12-31T14:40:28.871Z,100088.09
2022-12-31T14:43:07.483Z,100087.34
2022-12-31T14:45:52.096Z,100090.50
2022-12-31T14:48:36.851Z,100077.47
2022-12-31T14:51:05.100Z,100084.16
2022-12-31T14:53:31.704Z,100083.34
2022-12-31T14:56:27.721Z,100083.72
2022-12-31T14:58:59.702Z,100095.91
2022-12-31T15:01:26.398Z,100088.84
2022-12-31T15:03:57.279Z,100090.03
2022-12-31T15:06:23.779Z,100098.31
2022-12-31T15:09:15.369Z,100094.03
2022-12-31T15:12:21.974Z,100097.56
2022-12-31T15:14:54.604Z,100096.81
2022-12-31T15:17:29.030Z,100101.97
2022-12-31T15:20:17.872Z,100095.38
2022-12-31T15:22:52.131Z,100089.91
2022-12-31T15:25:32.605Z,100095.44
2022-12-31T15:28:05.357Z,100096.63
2022-12-31T15:30:36.581Z,100094.63
2022-12-31T15:33:07.787Z,100097.84
2022-12-31T15:35:52.957Z,100084.56
2022-12-31T15:38:32.983Z,100090.06
2022-12-31T15:41:00.378Z,100098.69
2022-12-31T15:43:29.834Z,100086.97
2022-12-31T15:45:57.652Z,100087.75
2022-12-31T15:48:36.189Z,100084.19
2022-12-31T15:51:04.680Z,100091.28
2022-12-31T15:53:53.663Z,100094.84
2022-12-31T15:56:31.242Z,100087.81
2022-12-31T15:59:01.539Z,100095.28
2022-12-31T16:01:35.137Z,100098.84
2022-12-31T16:04:12.560Z,100109.47
2022-12-31T16:06:39.185Z,100107.13
2022-12-31T16:09:18.516Z,100106.34
2022-12-31T16:11:45.408Z,100114.28
2022-12-31T16:14:22.193Z,100113.09
2022-12-31T16:17:00.394Z,100111.16
2022-12-31T16:19:42.430Z,100112.34
2022-12-31T16:22:25.253Z,100110.78
2022-12-31T16:25:38.864Z,100120.66
2022-12-31T16:27:43.287Z,100115.97
2022-12-31T16:30:21.209Z,100127.47
2022-12-31T16:32:49.505Z,100122.78
2022-12-31T16:35:29.862Z,100131.50
2022-12-31T16:38:17.576Z,100128.34
2022-12-31T16:41:03.604Z,100134.66
2022-12-31T16:43:36.547Z,100137.00
2022-12-31T16:46:25.507Z,100136.22
2022-12-31T16:48:55.938Z,100142.50
2022-12-31T16:51:25.954Z,100147.22
2022-12-31T16:53:53.555Z,100137.81
2022-12-31T16:56:26.340Z,100144.09
2022-12-31T16:59:01.346Z,100149.25
2022-12-31T17:01:32.175Z,100152.00
2022-12-31T17:04:03.701Z,100159.03
2022-12-31T17:06:33.336Z,100161.81
2022-12-31T17:09:20.939Z,100160.25
2022-12-31T17:11:52.490Z,100161.81
2022-12-31T17:14:23.118Z,100151.97
2022-12-31T17:17:03.170Z,100162.16
2022-12-31T17:19:45.853Z,100161.78
2022-12-31T17:22:32.849Z,100153.91
2022-12-31T17:25:27.053Z,100159.81
2022-12-31T17:28:02.163Z,100153.53
2022-12-31T17:30:32.590Z,100162.16
2022-12-31T17:33:27.063Z,100159.47
2022-12-31T17:36:13.545Z,100153.25
2022-12-31T17:38:40.032Z,100153.56
2022-12-31T17:41:06.392Z,100163.78
2022-12-31T17:43:37.977Z,100172.47
2022-12-31T17:46:15.936Z,100185.00
2022-12-31T17:48:45.019Z,100184.63
2022-12-31T17:51:12.088Z,100191.31
2022-12-31T17:53:38.497Z,100189.72
2022-12-31T17:56:07.466Z,100181.09
2022-12-31T17:58:44.784Z,100179.97
2022-12-31T18:01:15.540Z,100185.03
2022-12-31T18:03:42.020Z,100179.16
2022-12-31T18:06:16.625Z,100179.53
2022-12-31T18:08:43.595Z,100187.38
2022-12-31T18:11:22.772Z,100200.00
2022-12-31T18:13:49.534Z,100196.47
2022-12-31T18:16:16.331Z,100200.81
2022-12-31T18:18:43.674Z,100187.47
2022-12-31T18:21:17.898Z,100190.28
2022-12-31T18:23:46.490Z,100189.84
2022-12-31T18:26:18.373Z,100189.88
2022-12-31T18:28:45.545Z,100190.31
2022-12-31T18:31:19.095Z,100193.03
2022-12-31T18:33:47.019Z,100187.56
2022-12-31T18:36:15.616Z,100180.84
2022-12-31T18:38:42.492Z,100181.63
2022-12-31T18:41:17.537Z,100182.47
2022-12-31T18:43:44.224Z,100175.00
2022-12-31T18:46:13.390Z,100174.66
2022-12-31T18:48:41.410Z,100185.69
2022-12-31T18:51:16.840Z,100187.66
2022-12-31T18:53:43.492Z,100187.16
2022-12-31T18:56:12.843Z,100186.47
2022-12-31T18:58:39.523Z,100187.63
2022-12-31T19:01:14.966Z,100194.66
2022-12-31T19:03:41.509Z,100196.16
2022-12-31T19:06:08.861Z,100197.78
2022-12-31T19:08:35.260Z,100198.56
2022-12-31T19:11:01.672Z,100203.28
2022-12-31T19:13:28.051Z,100186.78
2022-12-31T19:15:55.456Z,100183.28
2022-12-31T19:18:21.846Z,100197.03
2022-12-31T19:20:48.323Z,100189.91
2022-12-31T19:23:20.591Z,100185.16
2022-12-31T19:25:48.910Z,100184.81
2022-12-31T19:28:21.404Z,100181.66
2022-12-31T19:30:48.405Z,100182.44
2022-12-31T19:33:15.914Z,100191.88
2022-12-31T19:35:42.744Z,100192.59
2022-12-31T19:38:18.773Z,100193.75
2022-12-31T19:40:46.470Z,100195.72
2022-12-31T19:43:14.507Z,100198.81
2022-12-31T19:45:42.590Z,100200.00
2022-12-31T19:48:14.331Z,100195.28
2022-12-31T19:50:52.222Z,100196.88
2022-12-31T19:53:22.238Z,100196.88
2022-12-31T19:55:49.345Z,100200.00
2022-12-31T19:58:21.444Z,100204.72
2022-12-31T20:00:55.696Z,100209.44
2022-12-31T20:03:23.756Z,100206.81
2022-12-31T20:05:50.234Z,100190.66
2022-12-31T20:08:17.016Z,100202.81
2022-12-31T20:10:43.926Z,100202.03
2022-12-31T20:13:10.626Z,100219.75
2022-12-31T20:15:41.284Z,100220.53
2022-12-31T20:18:07.699Z,100208.31
2022-12-31T20:20:34.191Z,100220.53
2022-12-31T20:23:00.638Z,100211.13
2022-12-31T20:25:27.077Z,100202.47
2022-12-31T20:27:54.947Z,100205.22
2022-12-31T20:30:22.951Z,100194.56
2022-12-31T20:32:52.019Z,100197.69
2022-12-31T20:35:19.430Z,100200.41
2022-12-31T20:37:46.135Z,100205.91
2022-12-31T20:40:14.248Z,100204.72
2022-12-31T20:42:41.266Z,100222.81
2022-12-31T20:45:09.408Z,100225.19
2022-12-31T20:47:36.010Z,100211.78
2022-12-31T20:50:11.976Z,100214.91
2022-12-31T20:52:38.789Z,100214.56
2022-12-31T20:55:05.743Z,100222.03
2022-12-31T20:57:33.984Z,100217.31
2022-12-31T21:00:00.987Z,100222.78
2022-12-31T21:02:40.792Z,100225.94
2022-12-31T21:05:09.363Z,100215.66
2022-12-31T21:07:35.868Z,100221.22
2022-12-31T21:10:02.258Z,100235.00
2022-12-31T21:12:43.792Z,100233.03
2022-12-31T21:15:12.267Z,100237.34
2022-12-31T21:17:38.700Z,100238.53
2022-12-31T21:20:05.691Z,100239.28
2022-12-31T21:22:33.659Z,100249.53
2022-12-31T21:25:04.059Z,100241.66
2022-12-31T21:27:30.730Z,100252.28
2022-12-31T21:32:43.615Z,100241.22
2022-12-31T21:38:04.433Z,100243.25
2022-12-31T21:40:32.007Z,100240.88
2022-12-31T21:42:58.759Z,100237.69
2022-12-31T21:45:25.526Z,100236.16
2022-12-31T21:48:10.588Z,100247.16
2022-12-31T21:50:37.023Z,100247.09
2022-12-31T21:53:03.482Z,100254.97
2022-12-31T21:55:48.342Z,100265.22
2022-12-31T21:58:25.866Z,100265.13
2022-12-31T22:01:12.577Z,100274.53
2022-12-31T22:03:39.222Z,100281.63
2022-12-31T22:06:12.331Z,100285.19
2022-12-31T22:08:40.642Z,100290.72
2022-12-31T22:11:07.453Z,100290.31
2022-12-31T22:13:34.476Z,100295.00
2022-12-31T22:16:05.123Z,100304.78
2022-12-31T22:18:34.912Z,100310.38
2022-12-31T22:21:05.509Z,100299.31
2022-12-31T22:23:33.480Z,100306.44
2022-12-31T22:26:00.556Z,100306.72
2022-12-31T22:28:38.097Z,100320.13
2022-12-31T22:31:05.906Z,100319.38
2022-12-31T22:33:32.375Z,100317.81
2022-12-31T22:36:04.130Z,100317.78
2022-12-31T22:38:31.039Z,100320.19
2022-12-31T22:41:14.041Z,100312.28
2022-12-31T22:43:42.822Z,100318.56
2022-12-31T22:46:11.753Z,100317.72
2022-12-31T22:48:38.570Z,100316.94
2022-12-31T22:51:05.867Z,100316.94
2022-12-31T22:53:32.712Z,100318.91
2022-12-31T22:55:59.454Z,100318.56
2022-12-31T22:58:26.010Z,100330.28
2022-12-31T23:00:52.791Z,100327.63
2022-12-31T23:03:19.429Z,100328.00
2022-12-31T23:05:49.724Z,100324.06
2022-12-31T23:08:22.724Z,100324.06
2022-12-31T23:11:01.306Z,100334.28
2022-12-31T23:13:50.979Z,100337.41
2022-12-31T23:16:37.597Z,100345.22
2022-12-31T23:19:23.626Z,100338.63
2022-12-31T23:22:08.436Z,100357.03
2022-12-31T23:24:35.034Z,100346.03
2022-12-31T23:27:01.515Z,100344.06
2022-12-31T23:29:27.997Z,100356.22
2022-12-31T23:31:54.483Z,100366.50
2022-12-31T23:34:21.273Z,100357.81
2022-12-31T23:36:47.913Z,100360.25
2022-12-31T23:39:14.477Z,100366.16
2022-12-31T23:41:40.909Z,100364.63
2022-12-31T23:44:07.418Z,100375.19
2022-12-31T23:46:33.867Z,100373.25
2022-12-31T23:49:00.404Z,100367.69
2022-12-31T23:51:26.903Z,100372.06
2022-12-31T23:53:53.578Z,100375.19
2022-12-31T23:56:23.557Z,100381.56
2022-12-31T23:58:56.686Z,100387.06
